Time;durP1;ratioP1;P1;durP2;ratioP2;P2;SDS_P1;SDS_P2;PMS_P1;PMS_P2;Temp;Humidity;BMP_temperature;BMP_pressure;BME280_temperature;BME280_humidity;BME280_pressure;Samples;Min_cycle;Max_cycle;Signal;HPM_P1;HPM_P2
2023/04/22 00:00:10;;;;;;;7.80;6.10;;;;;;;12.30;100.00;101051.69;4999493;28;20284;-75
2023/04/22 00:02:37;;;;;;;7.17;5.90;;;;;;;12.05;100.00;101013.78;5000256;28;20421;-75
2023/04/22 00:05:04;;;;;;;8.60;6.77;;;;;;;12.43;100.00;101046.28;5000278;28;20958;-75
2023/04/22 00:07:29;;;;;;;8.53;6.83;;;;;;;11.95;100.00;100979.22;5001316;28;20453;-75
2023/04/22 00:09:55;;;;;;;6.47;5.40;;;;;;;11.98;100.00;100994.13;4990387;28;20474;-75
2023/04/22 00:12:21;;;;;;;9.73;6.30;;;;;;;11.89;100.00;100979.19;4983136;28;20209;-75
2023/04/22 00:14:47;;;;;;;8.53;6.77;;;;;;;12.58;100.00;101089.19;4999202;28;20184;-75
2023/04/22 00:17:12;;;;;;;10.67;6.97;;;;;;;12.07;100.00;101011.72;5000117;28;20423;-75
2023/04/22 00:19:38;;;;;;;10.03;6.37;;;;;;;11.73;100.00;100916.72;4999598;28;20584;-75
2023/04/22 00:22:03;;;;;;;11.13;6.73;;;;;;;12.15;100.00;100983.78;5000233;28;20200;-76
2023/04/22 00:24:29;;;;;;;9.50;6.70;;;;;;;12.62;100.00;101076.13;5000731;28;20196;-76
2023/04/22 00:26:55;;;;;;;9.07;7.00;;;;;;;12.03;100.00;100959.38;4982622;28;20240;-76
2023/04/22 00:29:20;;;;;;;8.10;5.93;;;;;;;11.67;100.00;100930.97;4999765;28;20498;-76
2023/04/22 00:31:46;;;;;;;8.43;6.57;;;;;;;12.52;100.00;100993.09;5000446;28;20190;-76
2023/04/22 00:34:11;;;;;;;10.70;8.00;;;;;;;11.26;100.00;100842.47;4982835;28;20220;-75
2023/04/22 00:36:37;;;;;;;9.90;6.57;;;;;;;12.43;100.00;101003.25;5000315;28;20878;-75
2023/04/22 00:39:02;;;;;;;6.83;5.70;;;;;;;12.50;100.00;101034.72;4999269;28;20209;-75
2023/04/22 00:41:29;;;;;;;7.23;5.63;;;;;;;10.95;100.00;100800.06;4999943;28;20224;-75
2023/04/22 00:43:56;;;;;;;5.93;5.33;;;;;;;11.14;100.00;100819.91;4997529;28;20646;-75
2023/04/22 00:46:22;;;;;;;10.10;6.60;;;;;;;10.34;100.00;100682.88;4999578;28;20436;-75
2023/04/22 00:48:48;;;;;;;8.70;6.57;;;;;;;11.26;100.00;100855.91;4999793;28;20624;-75
2023/04/22 00:51:13;;;;;;;7.97;6.30;;;;;;;10.15;100.00;100677.22;5002344;28;20779;-75
2023/04/22 00:53:39;;;;;;;7.27;5.80;;;;;;;10.78;100.00;100752.09;5002874;28;20659;-75
2023/04/22 00:56:05;;;;;;;7.70;5.80;;;;;;;10.28;100.00;100660.38;4985239;28;20193;-75
2023/04/22 00:58:30;;;;;;;7.57;6.23;;;;;;;10.57;100.00;100726.25;5003998;28;20281;-75
2023/04/22 01:00:56;;;;;;;8.07;6.47;;;;;;;11.91;100.00;100940.34;4985578;28;20217;-75
2023/04/22 01:03:22;;;;;;;6.20;5.60;;;;;;;11.09;100.00;100844.69;4986491;28;20657;-75
2023/04/22 01:05:48;;;;;;;6.07;5.47;;;;;;;11.32;100.00;100844.34;5004082;28;20192;-75
2023/04/22 01:08:14;;;;;;;8.20;5.60;;;;;;;11.35;100.00;100849.31;5002223;28;20452;-75
2023/04/22 01:10:41;;;;;;;6.37;5.77;;;;;;;10.33;100.00;100702.66;5003307;28;20926;-77
2023/04/22 01:13:06;;;;;;;6.30;5.70;;;;;;;10.75;100.00;100747.16;5003856;28;20416;-77
2023/04/22 01:15:32;;;;;;;7.30;6.40;;;;;;;10.74;100.00;100750.03;5003836;28;20435;-77
2023/04/22 01:17:58;;;;;;;6.60;5.77;;;;;;;10.46;100.00;100724.16;5006051;28;20209;-77
2023/04/22 01:20:28;;;;;;;6.67;6.07;;;;;;;9.85;100.00;100600.81;5005776;28;20217;-77
2023/04/22 01:22:56;;;;;;;5.60;5.10;;;;;;;10.34;100.00;100672.97;5007624;28;20470;-77
2023/04/22 01:25:22;;;;;;;6.27;5.60;;;;;;;10.87;100.00;100779.59;4992942;28;20462;-77
2023/04/22 01:27:48;;;;;;;7.40;6.20;;;;;;;10.59;100.00;100748.34;5003502;28;20444;-77
2023/04/22 01:30:14;;;;;;;7.23;5.80;;;;;;;12.22;100.00;100992.69;5004627;28;20511;-77
2023/04/22 01:32:40;;;;;;;7.03;6.00;;;;;;;11.25;100.00;100856.91;5002376;28;20177;-78
2023/04/22 01:35:06;;;;;;;8.30;6.27;;;;;;;10.72;100.00;100787.78;4985679;28;20425;-75
2023/04/22 01:37:31;;;;;;;10.00;6.13;;;;;;;11.23;100.00;100840.19;5001348;28;20470;-75
2023/04/22 01:39:58;;;;;;;9.00;6.40;;;;;;;9.85;100.00;100603.47;5002893;28;20465;-74
2023/04/22 01:42:24;;;;;;;6.00;5.50;;;;;;;10.30;100.00;100716.44;4992870;28;20554;-75
2023/04/22 01:44:49;;;;;;;7.40;5.00;;;;;;;10.35;100.00;100717.50;4984434;28;20429;-75
2023/04/22 01:47:15;;;;;;;7.57;5.80;;;;;;;10.04;100.00;100644.75;5002354;28;20531;-74
2023/04/22 01:49:40;;;;;;;6.73;6.03;;;;;;;10.82;100.00;100733.78;5003084;28;20871;-74
2023/04/22 01:52:06;;;;;;;6.70;6.10;;;;;;;10.71;100.00;100734.34;5002335;28;20182;-74
2023/04/22 01:54:32;;;;;;;6.43;5.43;;;;;;;10.16;100.00;100629.78;5001380;28;20189;-75
2023/04/22 01:56:58;;;;;;;6.43;5.73;;;;;;;10.78;100.00;100749.41;5002919;28;20191;-74
2023/04/22 01:59:23;;;;;;;6.43;5.83;;;;;;;9.66;100.00;100594.31;5002305;28;20897;-74
2023/04/22 02:01:49;;;;;;;6.03;5.30;;;;;;;9.92;100.00;100629.28;5000946;28;20263;-74
2023/04/22 02:04:14;;;;;;;6.70;6.00;;;;;;;10.37;100.00;100679.78;5002033;28;20177;-74
2023/04/22 02:06:40;;;;;;;7.60;6.17;;;;;;;10.49;100.00;100745.19;5001780;28;20189;-74
2023/04/22 02:09:05;;;;;;;6.97;6.10;;;;;;;9.50;100.00;100555.31;5003354;28;20297;-74
2023/04/22 02:11:31;;;;;;;6.20;5.60;;;;;;;10.56;100.00;100713.88;4985088;28;20662;-74
2023/04/22 02:13:57;;;;;;;6.00;5.30;;;;;;;11.32;100.00;100839.78;5002270;28;20201;-74
2023/04/22 02:16:22;;;;;;;5.83;5.23;;;;;;;10.67;100.00;100720.50;5000993;28;20196;-74
2023/04/22 02:18:48;;;;;;;5.97;5.27;;;;;;;9.97;100.00;100652.78;5002051;28;20299;-74
2023/04/22 02:21:14;;;;;;;6.50;5.90;;;;;;;9.92;100.00;100605.19;5001204;28;20202;-74
2023/04/22 02:23:40;;;;;;;8.57;5.90;;;;;;;10.05;100.00;100646.44;5002891;28;20273;-74
2023/04/22 02:26:06;;;;;;;5.87;5.27;;;;;;;9.75;100.00;100611.91;5001901;28;20192;-74
2023/04/22 02:28:32;;;;;;;8.07;5.77;;;;;;;9.61;100.00;100599.47;5002784;28;20440;-74
2023/04/22 02:30:58;;;;;;;5.90;5.40;;;;;;;10.42;100.00;100730.97;5003741;28;20459;-74
2023/04/22 02:33:23;;;;;;;9.37;5.17;;;;;;;10.65;100.00;100789.63;5001515;28;20852;-74
2023/04/22 02:35:49;;;;;;;6.90;6.17;;;;;;;10.02;100.00;100693.22;5001276;28;20200;-75
2023/04/22 02:38:14;;;;;;;7.47;6.57;;;;;;;9.68;100.00;100629.78;5001977;28;20205;-74
2023/04/22 02:40:40;;;;;;;6.27;5.67;;;;;;;10.44;100.00;100752.19;5001574;28;20221;-74
2023/04/22 02:43:06;;;;;;;6.93;5.73;;;;;;;11.69;100.00;100971.91;5001204;28;20197;-74
2023/04/22 02:45:31;;;;;;;7.13;5.50;;;;;;;9.53;100.00;100629.06;5001989;28;20190;-74
2023/04/22 02:47:57;;;;;;;7.87;6.23;;;;;;;9.36;100.00;100589.22;5000727;28;21506;-74
2023/04/22 02:50:22;;;;;;;7.00;5.70;;;;;;;11.44;100.00;100927.81;4985087;28;20619;-74
2023/04/22 02:52:48;;;;;;;6.47;5.80;;;;;;;11.39;100.00;100927.59;4983924;28;20668;-74
2023/04/22 02:55:13;;;;;;;6.03;5.43;;;;;;;10.93;100.00;100872.69;5001155;28;20227;-75
2023/04/22 02:57:39;;;;;;;5.90;5.30;;;;;;;10.16;100.00;100734.31;5002041;28;20220;-74
2023/04/22 03:00:06;;;;;;;6.53;5.93;;;;;;;9.29;100.00;100588.38;5001533;28;20679;-74
2023/04/22 03:02:32;;;;;;;9.97;6.40;;;;;;;9.34;100.00;100606.50;5001494;28;20424;-74
2023/04/22 03:04:57;;;;;;;8.47;6.17;;;;;;;9.53;100.00;100618.38;5001207;28;20436;-74
2023/04/22 03:07:23;;;;;;;6.53;5.93;;;;;;;10.07;100.00;100722.94;4997890;28;20209;-74
2023/04/22 03:09:48;;;;;;;6.87;6.17;;;;;;;9.52;100.00;100641.63;4999193;28;20177;-74
2023/04/22 03:12:14;;;;;;;7.07;6.37;;;;;;;9.83;100.00;100710.81;4999987;28;20244;-74
2023/04/22 03:14:39;;;;;;;7.70;6.43;;;;;;;9.14;100.00;100577.78;5000684;28;20184;-74
2023/04/22 03:17:05;;;;;;;7.33;5.97;;;;;;;10.72;100.00;100790.47;5001061;28;20196;-74
2023/04/22 03:19:30;;;;;;;7.00;6.30;;;;;;;10.25;100.00;100751.06;4982281;28;20224;-74
2023/04/22 03:21:57;;;;;;;6.90;6.30;;;;;;;9.69;100.00;100656.38;5000426;28;20219;-74
2023/04/22 03:24:22;;;;;;;7.47;6.03;;;;;;;9.12;100.00;100522.81;5000429;28;20189;-74
2023/04/22 03:26:47;;;;;;;7.43;6.60;;;;;;;9.91;100.00;100708.00;5000389;28;20934;-74
2023/04/22 03:29:13;;;;;;;8.80;6.90;;;;;;;9.04;100.00;100593.34;5000939;28;20232;-74
2023/04/22 03:31:38;;;;;;;7.17;6.07;;;;;;;8.98;100.00;100567.38;4983494;28;20192;-74
2023/04/22 03:34:05;;;;;;;7.20;6.50;;;;;;;10.69;100.00;100798.94;5000680;28;20192;-74
2023/04/22 03:36:30;;;;;;;7.87;5.90;;;;;;;10.16;100.00;100729.78;5000877;28;20192;-74
2023/04/22 03:38:56;;;;;;;7.20;6.50;;;;;;;8.72;100.00;100519.84;5000668;28;20443;-75
2023/04/22 03:41:22;;;;;;;6.53;5.93;;;;;;;8.35;100.00;100552.00;4999743;28;20214;-75
2023/04/22 03:43:47;;;;;;;7.50;6.70;;;;;;;9.03;100.00;100618.44;5000492;28;20177;-74
2023/04/22 03:46:13;;;;;;;6.73;5.90;;;;;;;10.38;100.00;100780.63;5000270;28;20486;-74
2023/04/22 03:48:38;;;;;;;8.80;6.63;;;;;;;8.99;100.00;100510.16;5000835;28;20223;-74
2023/04/22 03:51:04;;;;;;;7.40;6.70;;;;;;;8.65;100.00;100543.88;4999927;28;20303;-74
2023/04/22 03:53:29;;;;;;;7.00;6.30;;;;;;;8.90;100.00;100592.41;5001497;28;20185;-74
2023/04/22 03:55:55;;;;;;;9.40;6.53;;;;;;;9.58;100.00;100638.16;4999944;28;20609;-74
2023/04/22 03:58:20;;;;;;;7.67;6.87;;;;;;;9.36;100.00;100743.66;4999776;28;20235;-74
2023/04/22 04:00:46;;;;;;;8.33;7.03;;;;;;;8.54;100.00;100563.09;5001135;28;20280;-74
2023/04/22 04:03:11;;;;;;;8.63;6.90;;;;;;;9.36;100.00;100698.97;5000037;28;20189;-74
2023/04/22 04:05:37;;;;;;;6.90;6.27;;;;;;;8.47;100.00;100588.94;5000812;28;20252;-74
2023/04/22 04:08:02;;;;;;;9.40;6.50;;;;;;;9.30;100.00;100696.25;5000675;28;20702;-74
2023/04/22 04:10:28;;;;;;;7.50;6.73;;;;;;;10.76;100.00;100863.34;5041824;23;20236;-69
2023/04/22 04:12:53;;;;;;;8.83;6.80;;;;;;;10.55;100.00;100854.34;5021430;28;20673;-69
2023/04/22 04:15:20;;;;;;;9.87;7.50;;;;;;;10.81;100.00;100852.84;5019756;28;20561;-69
2023/04/22 04:17:46;;;;;;;7.60;6.73;;;;;;;10.69;100.00;100831.13;5019664;28;20580;-69
2023/04/22 04:20:12;;;;;;;7.23;6.20;;;;;;;10.45;100.00;100859.28;5002079;28;20447;-69
2023/04/22 04:22:38;;;;;;;8.73;6.60;;;;;;;10.08;100.00;100855.06;5020201;28;20439;-69
2023/04/22 04:25:04;;;;;;;8.03;7.00;;;;;;;10.03;100.00;100849.47;5024541;28;20929;-69
2023/04/22 04:27:29;;;;;;;9.37;6.00;;;;;;;9.86;100.00;100833.66;5006682;28;20250;-69
2023/04/22 04:29:55;;;;;;;10.07;6.73;;;;;;;9.98;100.00;100846.53;5023879;28;20945;-69
2023/04/22 04:32:21;;;;;;;7.77;6.90;;;;;;;10.04;100.00;100827.84;5026768;28;20193;-69
2023/04/22 04:34:46;;;;;;;7.50;6.70;;;;;;;10.19;100.00;100815.16;5010919;28;20192;-69
2023/04/22 04:37:12;;;;;;;8.90;7.03;;;;;;;10.31;100.00;100825.34;5028141;28;20942;-69
2023/04/22 04:39:37;;;;;;;7.47;5.73;;;;;;;10.04;100.00;100822.47;5028944;28;20211;-69
2023/04/22 04:42:03;;;;;;;8.13;6.03;;;;;;;9.76;100.00;100755.50;5012673;28;20215;-68
2023/04/22 04:44:30;;;;;;;6.53;5.93;;;;;;;9.91;100.00;100780.31;5029585;28;20511;-69
2023/04/22 04:46:56;;;;;;;7.07;6.37;;;;;;;10.35;100.00;100819.38;5023508;28;20195;-69
2023/04/22 04:49:22;;;;;;;7.93;6.77;;;;;;;10.15;100.00;100805.00;5023659;28;20941;-69
2023/04/22 04:51:48;;;;;;;7.10;6.50;;;;;;;10.59;100.00;100844.09;5005548;28;20445;-69
2023/04/22 04:54:14;;;;;;;6.37;5.67;;;;;;;10.58;100.00;100827.13;5022596;28;20800;-68
2023/04/22 04:56:40;;;;;;;7.73;6.60;;;;;;;10.51;100.00;100826.28;5024716;28;20755;-69
2023/04/22 04:59:05;;;;;;;8.83;6.13;;;;;;;10.62;100.00;100809.63;5023630;28;20546;-69
2023/04/22 05:01:31;;;;;;;7.70;6.93;;;;;;;10.74;100.00;100835.91;5023079;28;20196;-68
2023/04/22 05:03:56;;;;;;;6.63;5.90;;;;;;;10.69;100.00;100819.56;5023163;28;20196;-69
2023/04/22 05:06:21;;;;;;;9.13;6.97;;;;;;;10.68;100.00;100796.47;5021962;28;20200;-68
2023/04/22 05:08:47;;;;;;;7.93;6.70;;;;;;;10.94;100.00;100830.59;5024276;28;20201;-69
2023/04/22 05:11:12;;;;;;;7.60;6.10;;;;;;;10.91;100.00;100820.28;5022795;28;20188;-68
2023/04/22 05:13:38;;;;;;;7.50;6.70;;;;;;;10.63;100.00;100767.53;5007365;28;20196;-69
2023/04/22 05:16:04;;;;;;;8.60;7.03;;;;;;;11.05;100.00;100827.31;5022587;28;20180;-68
2023/04/22 05:18:29;;;;;;;8.07;6.00;;;;;;;11.02;100.00;100823.22;5021982;28;20218;-68
2023/04/22 05:20:57;;;;;;;8.07;6.90;;;;;;;11.02;100.00;100819.66;5021561;28;20204;-68
2023/04/22 05:23:23;;;;;;;7.63;6.47;;;;;;;11.04;100.00;100825.66;5005502;28;20200;-68
2023/04/22 05:25:48;;;;;;;7.07;6.40;;;;;;;10.62;100.00;100731.03;5022346;28;20428;-69
2023/04/22 05:28:14;;;;;;;8.50;6.87;;;;;;;11.08;100.00;100790.19;5006079;28;20210;-69
2023/04/22 05:30:39;;;;;;;7.30;6.60;;;;;;;11.33;100.00;100824.50;5021564;28;20280;-68
2023/04/22 05:33:04;;;;;;;8.17;6.47;;;;;;;11.28;100.00;100810.84;5023051;28;20213;-69
2023/04/22 05:35:30;;;;;;;7.97;7.13;;;;;;;11.29;100.00;100816.03;5019943;28;20200;-69
2023/04/22 05:37:55;;;;;;;8.03;6.40;;;;;;;11.20;100.00;100811.06;5022903;28;20239;-68
2023/04/22 05:40:21;;;;;;;9.73;7.40;;;;;;;11.26;100.00;100805.69;5021997;28;20201;-69
2023/04/22 05:42:46;;;;;;;9.47;7.03;;;;;;;11.45;100.00;100820.16;5022338;28;20189;-69
2023/04/22 05:45:12;;;;;;;7.60;6.80;;;;;;;11.07;100.00;100758.97;5021378;28;20636;-68
2023/04/22 05:47:37;;;;;;;9.30;6.57;;;;;;;11.43;100.00;100833.00;5005616;28;20291;-68
2023/04/22 05:50:03;;;;;;;7.00;6.40;;;;;;;11.37;100.00;100830.28;5004967;28;20562;-68
2023/04/22 05:52:29;;;;;;;8.50;7.20;;;;;;;11.20;100.00;100805.69;5021597;28;20193;-69
2023/04/22 05:54:54;;;;;;;9.13;7.83;;;;;;;11.17;100.00;100798.88;5003838;28;20196;-68
2023/04/22 05:57:20;;;;;;;9.40;6.93;;;;;;;11.49;100.00;100834.88;5021878;28;20188;-69
2023/04/22 05:59:45;;;;;;;8.37;7.57;;;;;;;11.63;100.00;100832.16;5026738;28;20203;-68
2023/04/22 06:02:11;;;;;;;9.10;6.70;;;;;;;11.51;100.00;100829.25;5021898;28;20734;-68
2023/04/22 06:04:36;;;;;;;8.10;7.13;;;;;;;11.54;100.00;100815.44;5022425;28;20207;-68
2023/04/22 06:07:02;;;;;;;9.33;7.57;;;;;;;11.74;100.00;100832.41;5021544;28;20250;-69
2023/04/22 06:09:27;;;;;;;8.60;7.80;;;;;;;11.72;100.00;100812.16;5021733;28;20232;-69
2023/04/22 06:11:52;;;;;;;9.13;7.47;;;;;;;11.93;100.00;100820.00;5020874;28;20203;-69
2023/04/22 06:14:18;;;;;;;8.27;7.47;;;;;;;11.99;100.00;100807.59;5021342;28;20193;-68
2023/04/22 06:16:43;;;;;;;7.07;6.40;;;;;;;12.01;100.00;100796.66;5021820;28;20184;-68
2023/04/22 06:19:09;;;;;;;8.57;7.13;;;;;;;12.17;100.00;100820.41;5021637;28;20291;-69
2023/04/22 06:21:36;;;;;;;10.20;7.50;;;;;;;12.16;100.00;100813.38;5020822;28;20208;-68
2023/04/22 06:24:04;;;;;;;9.40;7.03;;;;;;;12.26;100.00;100786.84;5021313;28;20193;-68
2023/04/22 06:26:29;;;;;;;8.20;7.50;;;;;;;12.39;100.00;100802.97;5003559;28;20434;-68
2023/04/22 06:28:55;;;;;;;9.00;6.90;;;;;;;12.39;100.00;100807.53;5021504;28;20444;-69
2023/04/22 06:31:20;;;;;;;7.67;6.60;;;;;;;12.53;100.00;100798.38;5022356;28;20185;-69
2023/04/22 06:33:46;;;;;;;7.80;6.67;;;;;;;12.29;100.00;100797.19;5021156;28;20189;-68
2023/04/22 06:36:12;;;;;;;6.90;6.20;;;;;;;12.58;100.00;100813.88;5022953;28;20188;-68
2023/04/22 06:38:37;;;;;;;9.10;6.93;;;;;;;12.66;100.00;100817.16;5020934;28;20197;-68
2023/04/22 06:41:03;;;;;;;8.97;6.77;;;;;;;12.46;100.00;100813.69;5022428;28;20849;-69
2023/04/22 06:43:28;;;;;;;10.90;7.40;;;;;;;12.48;100.00;100830.47;5020964;28;20220;-68
2023/04/22 06:45:54;;;;;;;7.97;7.17;;;;;;;12.51;100.00;100824.66;5021328;28;20188;-69
2023/04/22 06:48:19;;;;;;;7.60;6.60;;;;;;;12.68;100.00;100833.09;5019531;28;20283;-69
2023/04/22 06:50:45;;;;;;;8.07;6.60;;;;;;;12.64;100.00;100835.38;5021582;28;20181;-69
2023/04/22 06:53:10;;;;;;;11.77;6.97;;;;;;;12.66;100.00;100829.78;5020972;28;20934;-69
2023/04/22 06:55:36;;;;;;;8.93;7.17;;;;;;;12.87;100.00;100825.97;5020755;28;20268;-68
2023/04/22 06:58:01;;;;;;;10.13;6.63;;;;;;;12.77;100.00;100826.44;5020865;28;20246;-69
2023/04/22 07:00:27;;;;;;;7.13;6.43;;;;;;;12.76;100.00;100819.41;5018200;28;20758;-68
2023/04/22 07:02:53;;;;;;;7.73;6.60;;;;;;;12.94;100.00;100844.78;5008656;28;20675;-68
2023/04/22 07:05:19;;;;;;;7.47;6.73;;;;;;;12.89;100.00;100832.78;5001511;28;20484;-68
2023/04/22 07:07:45;;;;;;;8.50;7.60;;;;;;;12.84;100.00;100819.16;5018997;28;20201;-69
2023/04/22 07:10:13;;;;;;;8.80;7.73;;;;;;;13.08;100.00;100841.00;5020505;28;20454;-68
2023/04/22 07:12:39;;;;;;;7.43;6.63;;;;;;;13.11;100.00;100830.63;5019508;28;20529;-69
2023/04/22 07:15:05;;;;;;;8.77;7.50;;;;;;;13.16;100.00;100831.81;5020106;28;20463;-68
2023/04/22 07:17:30;;;;;;;8.33;7.17;;;;;;;13.10;100.00;100831.66;5020174;28;20283;-69
2023/04/22 07:19:56;;;;;;;7.00;6.30;;;;;;;13.15;100.00;100838.25;5019622;28;20512;-69
2023/04/22 07:22:21;;;;;;;8.03;7.10;;;;;;;13.15;100.00;100835.56;5003152;28;20193;-69
2023/04/22 07:24:46;;;;;;;13.80;7.80;;;;;;;13.08;100.00;100832.91;5020293;28;20267;-69
2023/04/22 07:27:12;;;;;;;10.80;7.87;;;;;;;13.02;100.00;100812.25;5020689;28;20268;-69
2023/04/22 07:29:37;;;;;;;7.33;6.03;;;;;;;13.28;100.00;100822.88;5019981;28;20666;-69
2023/04/22 07:32:03;;;;;;;10.67;8.17;;;;;;;13.07;100.00;100793.56;5003236;28;20204;-69
2023/04/22 07:34:28;;;;;;;11.67;6.80;;;;;;;13.38;100.00;100811.63;5020411;28;20197;-69
2023/04/22 07:36:54;;;;;;;10.50;6.73;;;;;;;13.34;100.00;100795.06;5004649;28;20193;-69
2023/04/22 07:39:20;;;;;;;7.73;6.50;;;;;;;13.16;100.00;100788.72;5019534;28;20207;-69
2023/04/22 07:41:46;;;;;;;6.27;5.67;;;;;;;13.38;100.00;100795.47;5019989;28;20207;-70
2023/04/22 07:44:15;;;;;;;6.70;5.73;;;;;;;13.47;100.00;100804.09;5018336;28;20922;-70
2023/04/22 07:46:41;;;;;;;7.77;6.97;;;;;;;13.53;100.00;100803.22;5002940;28;20243;-70
2023/04/22 07:49:06;;;;;;;9.23;7.20;;;;;;;13.53;100.00;100808.59;5021972;28;20446;-70
2023/04/22 07:51:32;;;;;;;7.77;7.07;;;;;;;13.49;100.00;100810.91;5021675;28;20197;-70
2023/04/22 07:53:57;;;;;;;8.60;6.20;;;;;;;13.47;100.00;100796.84;5018513;28;20200;-69
2023/04/22 07:56:22;;;;;;;7.87;7.07;;;;;;;13.68;100.00;100810.97;5020218;28;20290;-70
2023/04/22 07:58:48;;;;;;;7.90;6.87;;;;;;;13.58;100.00;100800.69;5020669;28;20200;-70
2023/04/22 08:01:14;;;;;;;7.40;6.63;;;;;;;13.64;100.00;100807.09;5003538;28;20220;-70
2023/04/22 08:03:40;;;;;;;9.30;7.50;;;;;;;13.78;100.00;100806.75;5019675;28;20431;-70
2023/04/22 08:06:05;;;;;;;6.77;6.10;;;;;;;13.69;100.00;100783.81;5021313;28;20203;-69
2023/04/22 08:08:31;;;;;;;9.10;7.47;;;;;;;13.64;100.00;100775.56;5002722;28;20219;-70
2023/04/22 08:10:56;;;;;;;7.17;6.47;;;;;;;13.74;100.00;100794.78;5019003;28;20203;-70
2023/04/22 08:13:22;;;;;;;6.87;6.17;;;;;;;13.74;100.00;100780.44;5001587;28;20197;-70
2023/04/22 08:15:47;;;;;;;10.90;7.40;;;;;;;13.81;100.00;100793.88;5009356;28;20197;-71
2023/04/22 08:18:13;;;;;;;7.70;6.10;;;;;;;13.88;100.00;100781.16;5018809;28;20199;-70
2023/04/22 08:20:38;;;;;;;9.57;7.57;;;;;;;13.98;100.00;100786.88;5020286;28;20203;-70
2023/04/22 08:23:05;;;;;;;6.80;5.97;;;;;;;13.78;100.00;100741.22;5019585;28;20660;-70
2023/04/22 08:25:31;;;;;;;9.83;7.40;;;;;;;14.04;100.00;100777.91;5020039;28;20215;-70
2023/04/22 08:27:57;;;;;;;7.17;6.37;;;;;;;14.13;100.00;100779.25;5020659;28;20510;-70
2023/04/22 08:30:22;;;;;;;7.83;5.77;;;;;;;14.06;100.00;100745.28;5018630;28;20296;-70
2023/04/22 08:32:48;;;;;;;7.63;6.37;;;;;;;14.28;100.00;100764.56;5019274;28;20188;-70
2023/04/22 08:35:13;;;;;;;7.33;5.80;;;;;;;14.33;100.00;100770.94;5018313;28;20258;-71
2023/04/22 08:37:40;;;;;;;7.73;6.93;;;;;;;14.27;100.00;100752.13;5019784;28;20271;-70
2023/04/22 08:40:07;;;;;;;8.57;6.57;;;;;;;14.10;100.00;100696.09;5018864;28;20205;-70
2023/04/22 08:42:33;;;;;;;7.13;6.10;;;;;;;14.79;100.00;100772.28;5019726;28;20476;-70
2023/04/22 08:44:58;;;;;;;6.63;4.83;;;;;;;14.84;100.00;100769.72;5018386;28;20473;-70
2023/04/22 08:47:25;;;;;;;8.20;6.70;;;;;;;14.81;100.00;100764.78;5018588;28;20447;-70
2023/04/22 08:49:53;;;;;;;7.40;6.70;;;;;;;14.57;100.00;100736.81;5018734;28;20188;-70
2023/04/22 08:52:20;;;;;;;7.80;6.50;;;;;;;14.72;100.00;100746.41;5019435;28;20847;-70
2023/04/22 08:54:45;;;;;;;8.10;7.07;;;;;;;14.55;100.00;100720.06;5017764;28;20876;-70
2023/04/22 08:57:11;;;;;;;8.53;6.60;;;;;;;14.81;100.00;100758.53;5019400;28;20466;-70
2023/04/22 08:59:37;;;;;;;7.00;6.30;;;;;;;14.27;100.00;100655.84;5019969;28;20182;-70
2023/04/22 09:02:05;;;;;;;7.53;6.83;;;;;;;14.74;100.00;100737.03;5019101;28;20438;-70
2023/04/22 09:04:31;;;;;;;7.33;6.47;;;;;;;14.82;100.00;100757.50;5017927;28;20252;-70
2023/04/22 09:06:58;;;;;;;5.90;5.40;;;;;;;14.78;100.00;100740.09;5019250;28;20440;-70
2023/04/22 09:09:24;;;;;;;7.43;6.40;;;;;;;14.87;100.00;100752.25;5018160;28;20837;-70
2023/04/22 09:11:49;;;;;;;6.67;6.00;;;;;;;14.90;100.00;100738.28;5005550;28;20427;-70
2023/04/22 09:14:16;;;;;;;6.80;6.10;;;;;;;15.14;100.00;100741.84;5022358;28;20184;-71
2023/04/22 09:16:46;;;;;;;6.83;6.13;;;;;;;15.07;100.00;100733.84;5021962;28;20184;-70
2023/04/22 09:19:13;;;;;;;6.50;5.60;;;;;;;15.22;100.00;100736.13;5023025;28;20450;-71
2023/04/22 09:21:39;;;;;;;7.90;6.87;;;;;;;15.28;100.00;100723.56;5021828;28;20559;-70
2023/04/22 09:24:07;;;;;;;7.93;6.73;;;;;;;15.44;100.00;100738.25;5005889;28;20461;-70
2023/04/22 09:26:32;;;;;;;6.73;6.00;;;;;;;15.44;100.00;100743.66;5013338;28;20810;-70
2023/04/22 09:28:59;;;;;;;9.03;6.70;;;;;;;15.47;100.00;100735.91;5005614;28;20458;-70
2023/04/22 09:31:27;;;;;;;7.83;6.70;;;;;;;15.20;100.00;100677.97;5022264;28;20432;-70
2023/04/22 09:33:57;;;;;;;7.33;6.60;;;;;;;15.71;100.00;100734.09;5022064;28;20480;-71
2023/04/22 09:36:27;;;;;;;6.63;5.93;;;;;;;15.67;100.00;100735.56;5021476;28;20529;-70
2023/04/22 09:39:05;;;;;;;7.80;6.83;;;;;;;15.77;100.00;100741.25;5023070;28;20482;-70
2023/04/22 09:41:33;;;;;;;7.57;6.87;;;;;;;15.80;100.00;100734.56;5022199;28;20976;-70
2023/04/22 09:44:04;;;;;;;6.47;5.87;;;;;;;15.84;100.00;100732.19;5022982;28;20428;-70
2023/04/22 09:46:30;;;;;;;8.70;6.70;;;;;;;16.01;100.00;100738.53;5021542;28;20418;-70
2023/04/22 09:48:58;;;;;;;7.23;6.57;;;;;;;16.01;100.00;100728.53;5021942;28;20522;-70
2023/04/22 09:51:26;;;;;;;9.57;6.60;;;;;;;16.25;100.00;100736.59;5021569;28;20974;-70
2023/04/22 09:54:07;;;;;;;8.90;5.60;;;;;;;16.32;100.00;100734.59;5021442;28;20517;-70
2023/04/22 09:56:42;;;;;;;7.53;6.40;;;;;;;16.26;100.00;100732.84;5021589;28;20424;-69
2023/04/22 09:59:08;;;;;;;8.00;6.30;;;;;;;16.20;100.00;100723.81;5022340;28;20832;-69
2023/04/22 10:01:40;;;;;;;6.30;5.40;;;;;;;16.39;100.00;100724.44;5021035;28;20526;-69
2023/04/22 10:04:08;;;;;;;5.47;4.97;;;;;;;16.42;100.00;100685.25;5022544;28;20510;-69
2023/04/22 10:06:34;;;;;;;6.83;6.10;;;;;;;16.79;100.00;100711.97;5020437;28;20459;-69
2023/04/22 10:09:00;;;;;;;7.00;6.20;;;;;;;16.75;100.00;100703.50;5003533;28;21004;-69
2023/04/22 10:11:26;;;;;;;6.13;5.53;;;;;;;14.89;100.00;100358.56;5005246;22;20477;-76
2023/04/22 10:13:52;;;;;;;5.80;5.20;;;;;;;17.14;100.00;100698.22;4964673;28;20433;-76
2023/04/22 10:16:20;;;;;;;7.07;5.70;;;;;;;15.36;100.00;100398.91;4984082;28;20181;-76
2023/04/22 10:18:46;;;;;;;6.20;5.60;;;;;;;16.12;100.00;100533.97;4983017;28;20563;-76
2023/04/22 10:21:13;;;;;;;6.10;5.20;;;;;;;15.88;100.00;100492.66;4980808;28;20460;-76
2023/04/22 10:23:45;;;;;;;5.57;4.97;;;;;;;15.40;100.00;100424.41;4982694;28;20425;-76
2023/04/22 10:26:11;;;;;;;5.67;5.07;;;;;;;15.77;100.00;100510.59;4981851;28;20985;-77
2023/04/22 10:28:42;;;;;;;4.63;4.23;;;;;;;17.00;100.00;100656.25;4981548;28;20426;-77
2023/04/22 10:31:22;;;;;;;5.13;4.23;;;;;;;17.27;100.00;100676.22;4981639;28;20313;-77
2023/04/22 10:33:48;;;;;;;4.73;4.33;;;;;;;16.77;100.00;100606.56;4981917;28;20836;-76
2023/04/22 10:36:13;;;;;;;4.87;4.00;;;;;;;17.35;100.00;100673.06;4980717;28;20479;-77
2023/04/22 10:39:01;;;;;;;5.10;4.60;;;;;;;17.38;100.00;100669.88;4982345;28;20281;-77
2023/04/22 10:41:32;;;;;;;4.23;3.83;;;;;;;17.14;100.00;100606.06;4981628;28;20217;-77
2023/04/22 10:44:00;;;;;;;6.63;5.30;;;;;;;17.61;100.00;100652.56;4981697;28;20483;-76
2023/04/22 10:46:51;;;;;;;5.20;4.70;;;;;;;17.44;100.00;100626.56;4981214;28;20417;-77
2023/04/22 10:49:20;;;;;;;7.07;5.07;;;;;;;17.10;100.00;100577.84;4974827;28;20438;-76
2023/04/22 10:51:50;;;;;;;4.90;4.30;;;;;;;17.42;100.00;100624.13;4981115;28;20417;-76
2023/04/22 10:54:28;;;;;;;4.63;4.20;;;;;;;17.44;100.00;100651.78;4963987;28;20416;-77
2023/04/22 10:57:07;;;;;;;6.30;3.43;;;;;;;17.75;100.00;100630.53;4981552;28;20924;-77
2023/04/22 10:59:40;;;;;;;5.70;4.13;;;;;;;17.32;100.00;100559.72;4980825;28;20916;-77
2023/04/22 11:02:06;;;;;;;3.83;3.47;;;;;;;17.89;100.00;100620.97;4980786;28;20425;-77
2023/04/22 11:04:32;;;;;;;3.50;3.20;;;;;;;17.26;100.00;100528.19;4981348;28;20892;-76
2023/04/22 11:07:21;;;;;;;3.17;2.93;;;;;;;18.07;100.00;100630.69;4981316;28;20526;-77
2023/04/22 11:09:57;;;;;;;3.43;3.13;;;;;;;18.09;100.00;100584.31;4978042;28;20469;-75
2023/04/22 11:12:38;;;;;;;4.07;3.60;;;;;;;18.20;100.00;100624.88;4979565;28;20434;-75